createdAt,value
2017-11-09T00:02:02.522Z,5.40
2017-11-09T00:04:34.935Z,5.40
2017-11-09T00:07:01.220Z,5.40
2017-11-09T00:09:27.496Z,5.40
2017-11-09T00:11:56.077Z,5.40
2017-11-09T00:14:22.819Z,5.40
2017-11-09T00:16:49.077Z,5.30
2017-11-09T00:19:15.348Z,5.40
2017-11-09T00:21:42.347Z,5.40
2017-11-09T00:24:08.623Z,5.30
2017-11-09T00:26:35.327Z,5.40
2017-11-09T00:29:02.325Z,5.30
2017-11-09T00:31:28.594Z,5.30
2017-11-09T00:33:54.813Z,5.40
2017-11-09T00:36:21.085Z,5.30
2017-11-09T00:38:47.348Z,5.30
2017-11-09T00:41:13.974Z,5.30
2017-11-09T00:43:40.238Z,5.40
2017-11-09T00:46:08.337Z,5.40
2017-11-09T00:48:34.646Z,5.40
2017-11-09T00:51:00.892Z,5.40
2017-11-09T00:53:27.875Z,5.40
2017-11-09T00:55:54.104Z,5.40
2017-11-09T00:58:20.941Z,5.40
2017-11-09T01:00:54.293Z,5.40
2017-11-09T01:03:20.929Z,5.50
2017-11-09T01:05:47.913Z,5.50
2017-11-09T01:08:14.164Z,5.50
2017-11-09T01:10:40.443Z,5.50
2017-11-09T01:13:06.702Z,5.50
2017-11-09T01:15:32.968Z,5.60
2017-11-09T01:17:59.191Z,5.50
2017-11-09T01:20:25.474Z,5.60
2017-11-09T01:22:51.724Z,5.60
2017-11-09T01:25:18.880Z,5.60
2017-11-09T01:27:46.086Z,5.60
2017-11-09T01:30:12.360Z,5.60
2017-11-09T01:32:38.618Z,5.60
2017-11-09T01:35:05.671Z,5.70
2017-11-09T01:37:32.641Z,5.60
2017-11-09T01:39:58.929Z,5.60
2017-11-09T01:42:25.178Z,5.60
2017-11-09T01:44:51.792Z,5.70
2017-11-09T01:47:18.799Z,5.70
2017-11-09T01:49:45.041Z,5.70
2017-11-09T01:52:11.310Z,5.70
2017-11-09T01:54:37.540Z,5.70
2017-11-09T01:57:03.845Z,5.70
2017-11-09T01:59:31.305Z,5.70
2017-11-09T02:01:58.040Z,5.70
2017-11-09T02:04:25.029Z,5.70
2017-11-09T02:06:52.085Z,5.70
2017-11-09T02:09:18.361Z,5.80
2017-11-09T02:11:45.368Z,5.70
2017-11-09T02:14:11.647Z,5.80
2017-11-09T02:16:38.657Z,5.80
2017-11-09T02:19:04.956Z,5.80
2017-11-09T02:21:31.217Z,5.80
2017-11-09T02:23:57.496Z,5.80
2017-11-09T02:26:23.797Z,5.80
2017-11-09T02:28:50.802Z,5.80
2017-11-09T02:31:17.109Z,5.80
2017-11-09T02:33:43.391Z,5.80
2017-11-09T02:36:10.684Z,5.80
2017-11-09T02:38:38.936Z,5.80
2017-11-09T02:41:05.396Z,5.80
2017-11-09T02:43:31.666Z,5.80
2017-11-09T02:45:58.690Z,5.80
2017-11-09T02:48:24.960Z,5.80
2017-11-09T02:50:51.210Z,5.90
2017-11-09T02:53:17.487Z,5.90
2017-11-09T02:55:43.773Z,5.90
2017-11-09T02:58:10.041Z,5.90
2017-11-09T03:00:46.391Z,5.90
2017-11-09T03:03:12.642Z,5.90
2017-11-09T03:05:38.994Z,5.90
2017-11-09T03:08:05.313Z,5.90
2017-11-09T03:10:32.094Z,5.90
2017-11-09T03:12:58.340Z,5.90
2017-11-09T03:15:24.567Z,5.90
2017-11-09T03:17:50.883Z,5.90
2017-11-09T03:20:17.136Z,6.00
2017-11-09T03:22:43.432Z,6.00
2017-11-09T03:25:09.682Z,6.00
2017-11-09T03:27:35.941Z,6.00
2017-11-09T03:30:05.092Z,6.00
2017-11-09T03:32:31.410Z,6.00
2017-11-09T03:34:57.665Z,6.00
2017-11-09T03:37:23.908Z,6.00
2017-11-09T03:39:52.267Z,6.00
2017-11-09T03:42:18.960Z,6.00
2017-11-09T03:44:45.245Z,6.00
2017-11-09T03:47:11.550Z,6.00
2017-11-09T03:49:37.818Z,6.00
2017-11-09T03:52:04.790Z,6.00
2017-11-09T03:54:31.047Z,6.00
2017-11-09T03:56:57.327Z,6.00
2017-11-09T03:59:23.593Z,6.00
2017-11-09T04:01:49.938Z,6.00
2017-11-09T04:04:16.203Z,6.00
2017-11-09T04:06:43.270Z,6.00
2017-11-09T04:09:09.522Z,6.00
2017-11-09T04:11:36.118Z,6.00
2017-11-09T04:14:02.381Z,6.00
2017-11-09T04:16:28.607Z,6.00
2017-11-09T04:18:54.851Z,6.00
2017-11-09T04:21:21.095Z,6.00
2017-11-09T04:23:47.319Z,6.00
2017-11-09T04:26:13.583Z,6.00
2017-11-09T04:28:39.978Z,6.00
2017-11-09T04:31:06.243Z,6.20
2017-11-09T04:33:32.488Z,6.60
2017-11-09T04:35:58.723Z,7.10
2017-11-09T04:38:25.552Z,7.40
2017-11-09T04:40:52.836Z,7.90
2017-11-09T04:43:19.110Z,7.80
2017-11-09T04:45:45.379Z,8.00
2017-11-09T04:48:11.645Z,8.00
2017-11-09T04:50:39.438Z,8.30
2017-11-09T04:53:05.691Z,8.30
2017-11-09T04:55:32.192Z,8.50
2017-11-09T04:57:59.745Z,8.70
2017-11-09T05:00:26.017Z,9.10
2017-11-09T05:02:52.288Z,9.50
2017-11-09T05:05:19.311Z,10.00
2017-11-09T05:07:45.528Z,10.00
2017-11-09T05:10:12.089Z,10.10
2017-11-09T05:12:39.099Z,10.20
2017-11-09T05:15:05.868Z,10.20
2017-11-09T05:17:32.115Z,10.40
2017-11-09T05:19:59.095Z,10.50
2017-11-09T05:22:25.336Z,10.60
2017-11-09T05:24:52.810Z,10.60
2017-11-09T05:27:19.231Z,10.70
2017-11-09T05:29:45.484Z,10.80
2017-11-09T05:32:12.444Z,9.70
2017-11-09T05:34:39.800Z,9.20
2017-11-09T05:37:06.028Z,9.20
2017-11-09T05:39:39.396Z,8.70
2017-11-09T05:42:05.936Z,8.60
2017-11-09T05:44:32.862Z,8.80
2017-11-09T05:47:00.343Z,9.00
2017-11-09T05:49:26.772Z,8.80
2017-11-09T05:51:54.298Z,8.20
2017-11-09T05:54:20.762Z,8.10
2017-11-09T05:56:47.052Z,7.90
2017-11-09T05:59:15.138Z,7.50
2017-11-09T06:01:42.420Z,7.50
2017-11-09T06:04:08.887Z,7.40
2017-11-09T06:06:35.145Z,7.30
2017-11-09T06:09:01.419Z,7.20
2017-11-09T06:11:27.720Z,7.10
2017-11-09T06:13:54.272Z,7.10
2017-11-09T06:16:22.455Z,7.00
2017-11-09T06:18:56.332Z,6.90
2017-11-09T06:21:25.689Z,6.80
2017-11-09T06:23:52.933Z,6.80
2017-11-09T06:26:19.402Z,6.80
2017-11-09T06:28:45.678Z,6.80
2017-11-09T06:31:11.944Z,6.80
2017-11-09T06:33:39.707Z,6.80
2017-11-09T06:36:06.163Z,6.70
2017-11-09T06:38:33.169Z,6.70
2017-11-09T06:41:00.377Z,6.60
2017-11-09T06:43:27.736Z,6.60
2017-11-09T06:45:54.222Z,6.70
2017-11-09T06:48:20.468Z,6.60
2017-11-09T06:50:47.924Z,6.60
2017-11-09T06:53:14.184Z,6.60
2017-11-09T06:55:41.344Z,6.60
2017-11-09T06:58:08.538Z,6.70
2017-11-09T07:00:34.804Z,6.60
2017-11-09T07:03:01.425Z,6.60
2017-11-09T07:05:28.402Z,6.70
2017-11-09T07:07:54.667Z,6.60
2017-11-09T07:10:20.954Z,6.70
2017-11-09T07:12:47.263Z,6.70
2017-11-09T07:15:13.807Z,6.80
2017-11-09T07:17:40.721Z,7.30
2017-11-09T07:20:08.689Z,8.40
2017-11-09T07:22:35.241Z,8.40
2017-11-09T07:25:01.488Z,8.70
2017-11-09T07:27:27.826Z,8.80
2017-11-09T07:29:54.416Z,8.60
2017-11-09T07:32:21.976Z,8.40
2017-11-09T07:34:48.742Z,8.10
2017-11-09T07:37:15.024Z,8.00
2017-11-09T07:39:42.035Z,7.80
2017-11-09T07:42:08.304Z,7.80
2017-11-09T07:44:35.295Z,7.60
2017-11-09T07:47:01.574Z,7.60
2017-11-09T07:49:28.548Z,7.50
2017-11-09T07:52:01.762Z,7.50
2017-11-09T07:54:28.049Z,7.50
2017-11-09T07:56:57.095Z,7.50
2017-11-09T07:59:23.641Z,7.50
2017-11-09T08:01:49.901Z,7.50
2017-11-09T08:04:17.099Z,7.50
2017-11-09T08:06:43.558Z,7.50
2017-11-09T08:09:09.825Z,7.50
2017-11-09T08:11:36.090Z,7.50
2017-11-09T08:14:02.322Z,7.50
2017-11-09T08:16:28.895Z,7.50
2017-11-09T08:18:55.889Z,7.50
2017-11-09T08:21:22.131Z,7.50
2017-11-09T08:23:48.396Z,7.50
2017-11-09T08:26:16.104Z,7.50
2017-11-09T08:28:43.064Z,7.50
2017-11-09T08:31:12.717Z,7.60
2017-11-09T08:33:41.760Z,7.60
2017-11-09T08:36:08.218Z,7.60
2017-11-09T08:38:34.509Z,7.70
2017-11-09T08:41:01.151Z,7.80
2017-11-09T08:43:27.565Z,7.80
2017-11-09T08:45:54.088Z,7.90
2017-11-09T08:48:20.315Z,7.80
2017-11-09T08:50:46.580Z,7.80
2017-11-09T08:53:13.158Z,7.80
2017-11-09T08:55:40.148Z,7.90
2017-11-09T08:58:06.384Z,7.90
2017-11-09T09:00:32.641Z,8.00
2017-11-09T09:02:59.639Z,8.00
2017-11-09T09:05:26.235Z,8.00
2017-11-09T09:07:52.609Z,8.10
2017-11-09T09:10:19.025Z,8.10
2017-11-09T09:12:45.304Z,8.10
2017-11-09T09:15:11.727Z,8.10
2017-11-09T09:17:37.998Z,8.10
2017-11-09T09:20:04.312Z,8.10
2017-11-09T09:22:36.142Z,8.20
2017-11-09T09:25:05.309Z,8.20
2017-11-09T09:27:31.768Z,8.30
2017-11-09T09:29:59.122Z,8.30
2017-11-09T09:32:30.289Z,8.30
2017-11-09T09:35:03.110Z,8.40
2017-11-09T09:37:30.059Z,8.40
2017-11-09T09:39:57.457Z,8.40
2017-11-09T09:42:24.503Z,8.40
2017-11-09T09:44:51.539Z,8.40
2017-11-09T09:47:18.078Z,8.40
2017-11-09T09:49:45.103Z,8.40
2017-11-09T09:52:11.544Z,8.40
2017-11-09T09:54:37.867Z,8.40
2017-11-09T09:57:04.158Z,8.40
2017-11-09T09:59:30.424Z,8.40
2017-11-09T10:01:56.773Z,8.50
2017-11-09T10:04:23.794Z,9.00
2017-11-09T10:06:50.082Z,9.00
2017-11-09T10:09:16.327Z,9.40
2017-11-09T10:11:42.893Z,9.90
2017-11-09T10:14:09.335Z,10.00
2017-11-09T10:16:36.352Z,10.00
2017-11-09T10:19:02.609Z,10.00
2017-11-09T10:21:30.188Z,9.80
2017-11-09T10:23:57.654Z,9.90
2017-11-09T10:26:25.076Z,9.70
2017-11-09T10:28:52.087Z,9.50
2017-11-09T10:31:18.359Z,9.40
2017-11-09T10:33:45.361Z,9.10
2017-11-09T10:36:11.631Z,9.10
2017-11-09T10:38:37.869Z,9.00
2017-11-09T10:41:11.081Z,8.90
2017-11-09T10:43:37.338Z,8.90
2017-11-09T10:46:03.650Z,8.80
2017-11-09T10:48:29.926Z,8.80
2017-11-09T10:50:56.956Z,8.80
2017-11-09T10:53:23.667Z,8.80
2017-11-09T10:55:50.103Z,8.80
2017-11-09T10:58:16.387Z,8.80
2017-11-09T11:00:46.108Z,8.80
2017-11-09T11:03:13.704Z,8.80
2017-11-09T11:05:40.345Z,8.80
2017-11-09T11:08:07.002Z,8.70
2017-11-09T11:10:34.604Z,8.70
2017-11-09T11:13:01.043Z,8.80
2017-11-09T11:15:27.583Z,8.80
2017-11-09T11:17:53.868Z,8.80
2017-11-09T11:20:20.905Z,8.80
2017-11-09T11:22:47.489Z,8.80
2017-11-09T11:25:13.893Z,8.80
2017-11-09T11:27:40.403Z,8.90
2017-11-09T11:30:07.367Z,8.90
2017-11-09T11:32:33.670Z,8.80
2017-11-09T11:35:00.675Z,8.80
2017-11-09T11:37:27.390Z,8.80
2017-11-09T11:39:53.992Z,8.80
2017-11-09T11:42:21.477Z,8.90
2017-11-09T11:44:48.977Z,8.90
2017-11-09T11:47:15.917Z,8.90
2017-11-09T11:49:42.158Z,8.90
2017-11-09T11:52:08.444Z,8.90
2017-11-09T11:54:34.696Z,9.00
2017-11-09T11:57:02.061Z,8.90
2017-11-09T11:59:28.499Z,8.90
2017-11-09T12:01:55.545Z,8.90
2017-11-09T12:04:23.905Z,8.90
2017-11-09T12:06:50.359Z,8.90
2017-11-09T12:09:17.598Z,8.90
2017-11-09T12:11:46.931Z,8.90
2017-11-09T12:14:13.197Z,8.90
2017-11-09T12:16:40.617Z,8.90
2017-11-09T12:19:07.783Z,8.90
2017-11-09T12:21:34.071Z,8.80
2017-11-09T12:24:01.090Z,8.90
2017-11-09T12:26:29.144Z,8.90
2017-11-09T12:28:55.438Z,8.90
2017-11-09T12:31:21.699Z,8.90
2017-11-09T12:33:47.950Z,8.90
2017-11-09T12:36:14.251Z,8.90
2017-11-09T12:38:40.714Z,8.90
2017-11-09T12:41:06.976Z,8.90
2017-11-09T12:43:33.255Z,8.90
2017-11-09T12:45:59.529Z,8.90
2017-11-09T12:48:25.793Z,8.90
2017-11-09T12:50:52.079Z,8.90
2017-11-09T12:53:18.325Z,8.90
2017-11-09T12:55:44.597Z,8.90
2017-11-09T12:58:21.484Z,8.80
2017-11-09T13:03:39.099Z,8.70
2017-11-09T13:06:05.407Z,8.70
2017-11-09T13:08:31.668Z,8.70
2017-11-09T13:10:58.687Z,8.70
2017-11-09T13:13:24.941Z,8.70
2017-11-09T13:15:51.237Z,8.70
2017-11-09T13:18:17.498Z,8.70
2017-11-09T13:20:44.053Z,8.70
2017-11-09T13:23:11.045Z,8.70
2017-11-09T13:25:37.274Z,8.70
2017-11-09T13:28:03.553Z,8.80
2017-11-09T13:30:30.572Z,8.80
2017-11-09T13:32:58.681Z,8.80
2017-11-09T13:35:25.716Z,8.80
2017-11-09T13:37:52.702Z,8.80
2017-11-09T13:40:18.976Z,8.80
2017-11-09T13:42:45.212Z,8.80
2017-11-09T13:45:12.224Z,8.70
2017-11-09T13:47:38.464Z,8.70
2017-11-09T13:50:04.691Z,8.70
2017-11-09T13:52:30.984Z,8.60
2017-11-09T13:54:57.220Z,8.60
2017-11-09T13:57:23.486Z,8.70
2017-11-09T13:59:49.761Z,8.70
2017-11-09T14:02:16.062Z,8.70
2017-11-09T14:04:43.081Z,8.60
2017-11-09T14:07:09.343Z,8.60
2017-11-09T14:09:35.579Z,8.50
2017-11-09T14:12:01.851Z,8.50
2017-11-09T14:14:28.103Z,8.50
2017-11-09T14:16:55.140Z,8.50
2017-11-09T14:19:21.405Z,8.50
2017-11-09T14:21:48.609Z,8.40
2017-11-09T14:24:14.893Z,8.40
2017-11-09T14:26:41.150Z,8.40
2017-11-09T14:29:07.377Z,8.40
2017-11-09T14:31:33.646Z,8.30
2017-11-09T14:34:00.621Z,8.30
2017-11-09T14:36:26.886Z,8.30
2017-11-09T14:38:53.175Z,8.30
2017-11-09T14:41:19.425Z,8.20
2017-11-09T14:43:46.459Z,8.20
2017-11-09T14:46:12.722Z,8.20
2017-11-09T14:48:38.979Z,8.20
2017-11-09T14:51:05.983Z,8.30
2017-11-09T14:53:32.212Z,8.30
2017-11-09T14:55:58.484Z,8.30
2017-11-09T14:58:24.906Z,8.30
2017-11-09T15:00:51.962Z,8.20
2017-11-09T15:03:18.270Z,8.20
2017-11-09T15:05:45.259Z,8.20
2017-11-09T15:08:11.536Z,8.20
2017-11-09T15:10:38.558Z,8.20
2017-11-09T15:13:04.851Z,8.20
2017-11-09T15:15:31.141Z,8.20
2017-11-09T15:17:58.184Z,8.20
2017-11-09T15:20:25.206Z,8.20
2017-11-09T15:22:51.492Z,8.20
2017-11-09T15:25:17.798Z,8.20
2017-11-09T15:27:44.080Z,8.10
2017-11-09T15:30:10.352Z,8.10
2017-11-09T15:32:37.365Z,8.10
2017-11-09T15:35:03.648Z,8.10
2017-11-09T15:37:29.910Z,8.10
2017-11-09T15:39:56.482Z,8.10
2017-11-09T15:42:22.811Z,8.10
2017-11-09T15:44:49.539Z,8.00
2017-11-09T15:47:15.806Z,8.00
2017-11-09T15:49:42.102Z,8.00
2017-11-09T15:52:09.095Z,7.90
2017-11-09T15:54:35.375Z,7.90
2017-11-09T15:57:02.370Z,7.90
2017-11-09T15:59:28.621Z,7.90
2017-11-09T16:01:54.926Z,7.90
2017-11-09T16:04:21.514Z,7.90
2017-11-09T16:06:48.490Z,7.80
2017-11-09T16:09:14.744Z,7.80
2017-11-09T16:11:41.030Z,7.80
2017-11-09T16:14:07.197Z,7.80
2017-11-09T16:16:33.490Z,7.70
2017-11-09T16:18:59.705Z,7.70
2017-11-09T16:21:26.697Z,7.70
2017-11-09T16:23:52.961Z,7.70
2017-11-09T16:26:19.938Z,7.70
2017-11-09T16:28:48.165Z,7.70
2017-11-09T16:31:14.418Z,7.70
2017-11-09T16:33:41.351Z,7.60
2017-11-09T16:36:08.390Z,7.60
2017-11-09T16:38:34.636Z,7.60
2017-11-09T16:41:01.915Z,7.60
2017-11-09T16:43:28.256Z,7.60
2017-11-09T16:45:54.524Z,7.50
2017-11-09T16:48:20.802Z,7.60
2017-11-09T16:50:47.080Z,7.50
2017-11-09T16:53:14.117Z,7.60
2017-11-09T16:55:40.422Z,7.60
2017-11-09T16:58:06.995Z,7.60
2017-11-09T17:00:33.275Z,7.50
2017-11-09T17:02:59.602Z,7.50
2017-11-09T17:05:25.968Z,7.50
2017-11-09T17:07:52.253Z,7.50
2017-11-09T17:10:18.545Z,7.50
2017-11-09T17:12:45.624Z,7.50
2017-11-09T17:15:11.925Z,7.50
2017-11-09T17:17:38.260Z,7.40
2017-11-09T17:20:04.718Z,7.40
2017-11-09T17:22:31.016Z,7.40
2017-11-09T17:24:57.267Z,7.40
2017-11-09T17:27:23.568Z,7.40
2017-11-09T17:29:50.607Z,7.30
2017-11-09T17:32:17.661Z,7.30
2017-11-09T17:34:43.900Z,7.30
2017-11-09T17:37:10.139Z,7.30
2017-11-09T17:39:36.473Z,7.30
2017-11-09T17:42:06.709Z,7.30
2017-11-09T17:44:33.029Z,7.30
2017-11-09T17:46:59.298Z,7.30
2017-11-09T17:49:25.584Z,7.30
2017-11-09T17:51:51.883Z,7.30
2017-11-09T17:54:18.164Z,7.30
2017-11-09T17:56:47.441Z,7.30
2017-11-09T17:59:13.717Z,7.30
2017-11-09T18:01:40.806Z,7.30
2017-11-09T18:04:07.089Z,7.30
2017-11-09T18:06:34.087Z,7.30
2017-11-09T18:09:00.338Z,7.20
2017-11-09T18:11:26.602Z,7.20
2017-11-09T18:13:52.926Z,7.30
2017-11-09T18:16:19.938Z,7.20
2017-11-09T18:18:46.227Z,7.20
2017-11-09T18:21:12.537Z,7.20
2017-11-09T18:23:38.872Z,7.10
2017-11-09T18:26:05.210Z,7.10
2017-11-09T18:28:31.462Z,7.10
2017-11-09T18:30:57.782Z,7.20
2017-11-09T18:33:24.171Z,7.20
2017-11-09T18:35:51.222Z,7.10
2017-11-09T18:38:18.237Z,7.10
2017-11-09T18:40:44.592Z,7.10
2017-11-09T18:43:11.672Z,7.10
2017-11-09T18:45:38.013Z,7.10
2017-11-09T18:48:04.334Z,7.10
2017-11-09T18:50:30.662Z,7.10
2017-11-09T18:52:57.039Z,7.10
2017-11-09T18:55:24.088Z,7.00
2017-11-09T18:57:51.131Z,7.00
2017-11-09T19:00:17.458Z,7.00
2017-11-09T19:02:43.860Z,7.00
2017-11-09T19:05:10.181Z,7.00
2017-11-09T19:07:36.511Z,7.10
2017-11-09T19:10:02.881Z,7.00
2017-11-09T19:12:29.968Z,7.10
2017-11-09T19:14:56.294Z,7.00
2017-11-09T19:17:22.668Z,7.00
2017-11-09T19:19:49.014Z,7.00
2017-11-09T19:22:16.082Z,7.00
2017-11-09T19:24:42.479Z,7.00
2017-11-09T19:27:08.861Z,7.00
2017-11-09T19:29:35.205Z,7.00
2017-11-09T19:32:01.561Z,7.00
2017-11-09T19:34:27.890Z,7.00
2017-11-09T19:36:54.308Z,7.00
2017-11-09T19:39:20.685Z,7.00
2017-11-09T19:41:47.030Z,6.90
2017-11-09T19:44:13.395Z,6.90
2017-11-09T19:46:39.754Z,6.90
2017-11-09T19:49:06.800Z,6.90
2017-11-09T19:51:33.837Z,6.90
2017-11-09T19:54:00.176Z,6.90
2017-11-09T19:56:27.266Z,6.90
2017-11-09T19:58:53.566Z,6.80
2017-11-09T20:01:20.720Z,6.90
2017-11-09T20:03:47.035Z,6.90
2017-11-09T20:06:14.889Z,6.90
2017-11-09T20:08:41.203Z,6.90
2017-11-09T20:11:07.559Z,6.90
2017-11-09T20:13:34.950Z,6.90
2017-11-09T20:16:01.287Z,6.90
2017-11-09T20:18:27.611Z,6.90
2017-11-09T20:20:53.958Z,6.90
2017-11-09T20:23:20.338Z,6.90
2017-11-09T20:25:46.681Z,6.90
2017-11-09T20:28:13.004Z,6.90
2017-11-09T20:30:39.422Z,6.90
2017-11-09T20:33:06.512Z,6.90
2017-11-09T20:35:32.903Z,6.90
2017-11-09T20:37:59.303Z,7.00
2017-11-09T20:40:25.680Z,6.90
2017-11-09T20:42:52.143Z,6.90
2017-11-09T20:45:18.490Z,6.90
2017-11-09T20:47:45.542Z,6.90
2017-11-09T20:50:14.957Z,6.90
2017-11-09T20:52:42.033Z,7.00
2017-11-09T20:55:08.331Z,6.90
2017-11-09T20:57:34.592Z,6.90
2017-11-09T21:00:00.926Z,6.90
2017-11-09T21:02:27.300Z,6.90
2017-11-09T21:04:53.609Z,6.90
2017-11-09T21:07:20.215Z,6.90
2017-11-09T21:09:46.467Z,6.90
2017-11-09T21:12:12.700Z,6.90
2017-11-09T21:14:39.001Z,6.90
2017-11-09T21:17:05.284Z,6.80
2017-11-09T21:19:31.586Z,6.80
2017-11-09T21:21:57.849Z,6.80
2017-11-09T21:24:24.891Z,6.80
2017-11-09T21:26:51.191Z,6.80
2017-11-09T21:29:17.488Z,6.80
2017-11-09T21:31:43.792Z,6.80
2017-11-09T21:34:10.073Z,6.80
2017-11-09T21:36:36.309Z,6.70
2017-11-09T21:39:02.629Z,6.70
2017-11-09T21:41:29.071Z,6.70
2017-11-09T21:43:55.401Z,6.70
2017-11-09T21:46:21.652Z,6.70
2017-11-09T21:48:48.934Z,6.70
2017-11-09T21:51:15.165Z,6.70
2017-11-09T21:53:41.420Z,6.70
2017-11-09T21:56:07.678Z,6.70
2017-11-09T21:58:33.930Z,6.70
2017-11-09T22:01:00.167Z,6.70
2017-11-09T22:03:26.533Z,6.70
2017-11-09T22:05:52.820Z,6.70
2017-11-09T22:08:19.071Z,6.70
2017-11-09T22:10:45.313Z,6.70
2017-11-09T22:13:12.053Z,6.70
2017-11-09T22:15:38.292Z,6.70
2017-11-09T22:18:04.555Z,6.70
2017-11-09T22:20:31.545Z,6.70
2017-11-09T22:22:58.080Z,6.70
2017-11-09T22:25:24.329Z,6.70
2017-11-09T22:27:50.562Z,6.70
2017-11-09T22:30:17.175Z,6.70
2017-11-09T22:32:43.638Z,6.70
2017-11-09T22:35:09.936Z,6.70
2017-11-09T22:37:36.180Z,6.70
2017-11-09T22:40:02.504Z,6.70
2017-11-09T22:42:28.741Z,6.70
2017-11-09T22:44:54.999Z,6.70
2017-11-09T22:47:22.388Z,6.70
2017-11-09T22:49:48.624Z,6.70
2017-11-09T22:52:15.598Z,6.70
2017-11-09T22:54:42.012Z,6.70
2017-11-09T22:57:08.337Z,6.70
2017-11-09T22:59:34.978Z,6.70
2017-11-09T23:02:01.390Z,6.70
2017-11-09T23:04:28.562Z,6.70
2017-11-09T23:06:55.779Z,6.60
2017-11-09T23:09:29.522Z,6.60
2017-11-09T23:11:55.768Z,6.60
2017-11-09T23:14:23.025Z,6.60
2017-11-09T23:16:49.514Z,6.60
2017-11-09T23:19:15.773Z,6.60
2017-11-09T23:21:43.944Z,6.70
2017-11-09T23:24:10.386Z,6.60
2017-11-09T23:26:37.464Z,6.60
2017-11-09T23:29:05.627Z,6.60
2017-11-09T23:31:31.854Z,6.60
2017-11-09T23:33:58.132Z,6.70
2017-11-09T23:36:25.552Z,6.60
2017-11-09T23:38:51.962Z,6.70
2017-11-09T23:41:18.209Z,6.60
2017-11-09T23:43:44.754Z,6.70
2017-11-09T23:46:10.993Z,6.60
2017-11-09T23:48:37.226Z,6.60
2017-11-09T23:51:04.588Z,6.60
2017-11-09T23:53:30.822Z,6.60
2017-11-09T23:55:57.065Z,6.60
2017-11-09T23:58:23.518Z,6.60
